Time;durP1;ratioP1;P1;durP2;ratioP2;P2;SDS_P1;SDS_P2;PMS_P1;PMS_P2;Temp;Humidity;BMP_temperature;BMP_pressure;BME280_temperature;BME280_humidity;BME280_pressure;Samples;Min_cycle;Max_cycle;Signal;HPM_P1;HPM_P2
2024/01/02 00:01:23;;;;;;;9.25;1.90;;;;;;;4.29;100.00;99714.97;5213054;28;20033;-74
2024/01/02 00:03:53;;;;;;;12.32;2.17;;;;;;;4.31;100.00;99713.19;5212646;28;20276;-74
2024/01/02 00:06:23;;;;;;;12.07;2.25;;;;;;;4.30;100.00;99710.66;5214075;28;20025;-73
2024/01/02 00:08:54;;;;;;;10.00;2.05;;;;;;;4.28;100.00;99708.09;5215432;28;20546;-73
2024/01/02 00:11:25;;;;;;;10.95;1.65;;;;;;;4.30;100.00;99698.56;5215256;28;20033;-73
2024/01/02 00:13:55;;;;;;;8.35;1.63;;;;;;;4.42;100.00;99695.69;5212502;28;20052;-74
2024/01/02 00:16:25;;;;;;;8.27;1.70;;;;;;;4.46;100.00;99694.72;5213440;28;20045;-74
2024/01/02 00:18:56;;;;;;;16.20;2.35;;;;;;;4.45;100.00;99690.44;5215855;28;20033;-74
2024/01/02 00:21:26;;;;;;;14.13;1.52;;;;;;;4.27;100.00;99693.47;5210651;28;20098;-73
2024/01/02 00:24:01;;;;;;;9.60;2.17;;;;;;;4.34;100.00;99689.00;5210728;28;20414;-74
2024/01/02 00:26:31;;;;;;;;;;;;;;;4.26;100.00;99686.59;5209325;28;20506;-74
2024/01/02 00:29:02;;;;;;;7.87;1.23;;;;;;;4.31;100.00;99673.56;5213572;28;20003;-74
2024/01/02 00:31:32;;;;;;;13.10;2.25;;;;;;;4.40;100.00;99678.50;5211467;28;20033;-74
2024/01/02 00:34:03;;;;;;;17.88;1.85;;;;;;;4.35;100.00;99680.34;5211897;28;20020;-74
2024/01/02 00:36:33;;;;;;;14.50;1.73;;;;;;;4.36;100.00;99674.28;5212961;28;20301;-73
2024/01/02 00:39:03;;;;;;;9.30;1.50;;;;;;;4.34;100.00;99679.53;5226922;28;20056;-74
2024/01/02 00:41:34;;;;;;;8.98;1.83;;;;;;;4.38;100.00;99670.78;5210911;28;20041;-73
2024/01/02 00:44:04;;;;;;;12.48;1.73;;;;;;;4.20;100.00;99666.09;5212254;28;20029;-74
2024/01/02 00:46:34;;;;;;;6.65;1.50;;;;;;;4.30;100.00;99656.34;5209720;28;20356;-74
2024/01/02 00:49:04;;;;;;;11.88;1.90;;;;;;;4.29;100.00;99655.50;5213951;28;20028;-74
2024/01/02 00:51:35;;;;;;;11.48;1.65;;;;;;;4.19;100.00;99659.22;5211431;28;20083;-73
2024/01/02 00:54:05;;;;;;;16.55;2.67;;;;;;;4.14;100.00;99655.88;5213287;28;20040;-74
2024/01/02 00:56:35;;;;;;;9.95;1.50;;;;;;;4.08;100.00;99655.16;5209829;28;20040;-73
2024/01/02 00:59:06;;;;;;;9.65;1.75;;;;;;;4.04;100.00;99646.66;5212956;28;20033;-74
2024/01/02 01:01:36;;;;;;;9.52;1.70;;;;;;;3.99;100.00;99650.25;5210365;28;20026;-74
2024/01/02 01:04:08;;;;;;;15.45;2.10;;;;;;;3.99;100.00;99639.91;5213511;28;20031;-74
2024/01/02 01:06:38;;;;;;;9.93;1.63;;;;;;;4.09;100.00;99642.22;5213021;28;20510;-74
2024/01/02 01:09:08;;;;;;;11.13;1.90;;;;;;;4.03;100.00;99642.38;5208168;28;20048;-74
2024/01/02 01:11:38;;;;;;;6.88;1.92;;;;;;;4.05;100.00;99632.84;5208415;28;20390;-74
2024/01/02 01:14:09;;;;;;;10.77;1.60;;;;;;;3.95;100.00;99633.13;5209289;28;20112;-74
2024/01/02 01:16:39;;;;;;;10.05;1.63;;;;;;;4.10;100.00;99628.41;5206780;28;20191;-74
2024/01/02 01:19:09;;;;;;;15.40;1.65;;;;;;;4.08;100.00;99625.00;5208367;28;20120;-74
2024/01/02 01:21:40;;;;;;;10.65;1.70;;;;;;;4.10;100.00;99622.41;5205187;28;20033;-74
2024/01/02 01:24:10;;;;;;;10.15;1.40;;;;;;;4.18;100.00;99620.47;5210314;28;20049;-74
2024/01/02 01:26:40;;;;;;;13.88;1.60;;;;;;;4.30;100.00;99618.41;5207000;28;20071;-74
2024/01/02 01:29:12;;;;;;;13.52;1.75;;;;;;;4.54;100.00;99625.53;5207716;28;20573;-74
2024/01/02 01:31:42;;;;;;;9.50;1.60;;;;;;;4.46;100.00;99614.53;5205496;28;20176;-74
2024/01/02 01:34:12;;;;;;;10.98;1.80;;;;;;;4.59;100.00;99613.31;5207549;28;20024;-74
2024/01/02 01:36:43;;;;;;;10.73;1.80;;;;;;;4.56;100.00;99609.97;5205795;28;20442;-74
2024/01/02 01:39:13;;;;;;;9.82;1.30;;;;;;;4.53;100.00;99603.16;5210153;28;20304;-74
2024/01/02 01:41:43;;;;;;;9.77;1.27;;;;;;;4.56;100.00;99608.22;5241005;28;20230;-74
2024/01/02 01:44:14;;;;;;;10.45;1.85;;;;;;;4.58;100.00;99598.69;5207688;28;20037;-75
2024/01/02 01:46:45;;;;;;;9.65;1.38;;;;;;;4.69;100.00;99586.31;5209217;28;20112;-74
2024/01/02 01:49:15;;;;;;;10.13;1.30;;;;;;;4.71;100.00;99586.25;5207754;28;20047;-74
2024/01/02 01:51:47;;;;;;;8.63;1.80;;;;;;;4.57;100.00;99572.84;5204593;28;20424;-75
2024/01/02 01:54:18;;;;;;;10.02;1.70;;;;;;;4.59;100.00;99577.09;5206565;28;20024;-74
2024/01/02 01:56:50;;;;;;;8.93;1.30;;;;;;;4.58;100.00;99580.59;5205614;28;20179;-74
2024/01/02 01:59:20;;;;;;;7.90;1.65;;;;;;;4.62;100.00;99577.00;5204825;28;20484;-74
2024/01/02 02:01:51;;;;;;;6.38;1.23;;;;;;;4.57;100.00;99567.69;5205358;28;20025;-74
2024/01/02 02:04:25;;;;;;;7.50;1.42;;;;;;;4.45;100.00;99568.88;5210211;28;20025;-74
2024/01/02 02:06:55;;;;;;;9.07;1.40;;;;;;;4.56;100.00;99550.47;5211042;28;20437;-73
2024/01/02 02:09:25;;;;;;;7.38;1.85;;;;;;;4.56;100.00;99550.47;5212940;28;20111;-74
2024/01/02 02:11:56;;;;;;;12.43;1.80;;;;;;;4.62;100.00;99545.97;5210348;28;20037;-74
2024/01/02 02:14:26;;;;;;;7.57;1.40;;;;;;;4.62;100.00;99537.38;5209259;28;20103;-74
2024/01/02 02:16:57;;;;;;;11.45;1.58;;;;;;;4.62;100.00;99529.59;5210963;28;20124;-74
2024/01/02 02:19:27;;;;;;;11.55;1.60;;;;;;;4.63;100.00;99532.13;5208983;28;20131;-74
2024/01/02 02:22:00;;;;;;;10.02;1.55;;;;;;;4.74;100.00;99524.94;5209296;28;20445;-74
2024/01/02 02:24:30;;;;;;;15.13;1.85;;;;;;;4.77;100.00;99513.66;5209242;28;20568;-73
2024/01/02 02:27:02;;;;;;;16.55;1.90;;;;;;;4.76;100.00;99512.78;5210051;28;20037;-74
2024/01/02 02:29:32;;;;;;;15.73;1.58;;;;;;;4.81;100.00;99513.50;5210171;28;20078;-74
2024/01/02 02:32:02;;;;;;;12.30;1.33;;;;;;;4.87;100.00;99502.97;5210836;28;20029;-74
2024/01/02 02:34:32;;;;;;;11.27;1.17;;;;;;;4.94;100.00;99501.88;5214207;28;20137;-74
2024/01/02 02:37:03;;;;;;;8.05;1.10;;;;;;;4.88;100.00;99496.91;5209496;28;20026;-74
2024/01/02 02:39:33;;;;;;;13.15;1.48;;;;;;;4.94;100.00;99488.94;5212193;28;20101;-74
2024/01/02 02:42:04;;;;;;;13.50;1.65;;;;;;;5.02;100.00;99484.41;5210140;28;20025;-74
2024/01/02 02:44:34;;;;;;;8.32;1.40;;;;;;;4.97;100.00;99470.72;5213210;28;20025;-74
2024/01/02 02:47:04;;;;;;;7.82;1.02;;;;;;;4.97;100.00;99462.97;5210285;28;20021;-74
2024/01/02 02:49:35;;;;;;;10.73;1.63;;;;;;;5.11;100.00;99453.03;5213147;28;20029;-74
2024/01/02 02:52:06;;;;;;;11.20;1.80;;;;;;;5.14;100.00;99446.91;5209745;28;20032;-74
2024/01/02 02:54:36;;;;;;;8.77;1.33;;;;;;;5.13;100.00;99440.03;5210410;28;20486;-73
2024/01/02 02:57:06;;;;;;;12.15;1.58;;;;;;;5.17;100.00;99436.47;5209958;28;20030;-74
2024/01/02 02:59:36;;;;;;;9.40;1.38;;;;;;;5.16;100.00;99430.41;5210193;28;20029;-74
2024/01/02 03:02:07;;;;;;;13.48;1.80;;;;;;;5.20;100.00;99411.31;5209385;28;20104;-75
2024/01/02 03:04:37;;;;;;;11.40;1.95;;;;;;;5.28;100.00;99411.91;5210394;28;20028;-74
2024/01/02 03:07:09;;;;;;;9.90;1.60;;;;;;;5.37;100.00;99414.19;5209355;28;20181;-74
2024/01/02 03:09:43;;;;;;;10.77;1.33;;;;;;;5.47;100.00;99405.19;5208405;28;20028;-73
2024/01/02 03:12:14;;;;;;;6.80;1.87;;;;;;;5.49;100.00;99400.81;5211937;28;20498;-74
2024/01/02 03:14:44;;;;;;;7.72;1.17;;;;;;;5.48;100.00;99386.16;5206155;28;20032;-75
2024/01/02 03:17:15;;;;;;;15.55;2.10;;;;;;;5.52;100.00;99382.56;5212033;28;20029;-75
2024/01/02 03:19:45;;;;;;;11.80;1.55;;;;;;;5.51;100.00;99375.69;5207265;28;20075;-74
2024/01/02 03:22:15;;;;;;;14.80;2.00;;;;;;;5.57;100.00;99373.75;5208268;28;20063;-74
2024/01/02 03:24:45;;;;;;;10.07;1.45;;;;;;;5.51;100.00;99375.69;5206751;28;20041;-73
2024/01/02 03:27:16;;;;;;;11.82;1.23;;;;;;;5.53;100.00;99373.88;5209970;28;20024;-74
2024/01/02 03:29:46;;;;;;;6.32;1.20;;;;;;;5.59;100.00;99366.75;5211973;28;20029;-74
2024/01/02 03:32:16;;;;;;;9.70;1.65;;;;;;;5.58;100.00;99366.81;5211711;28;20027;-75
2024/01/02 03:34:50;;;;;;;6.32;1.15;;;;;;;5.74;100.00;99362.81;5211846;28;20466;-74
2024/01/02 03:37:20;;;;;;;4.55;1.30;;;;;;;5.74;100.00;99363.63;5207995;28;20048;-74
2024/01/02 03:39:51;;;;;;;8.40;1.33;;;;;;;5.75;100.00;99348.94;5214292;28;21031;-74
2024/01/02 03:42:21;;;;;;;10.30;1.27;;;;;;;5.74;100.00;99337.72;5212555;28;20124;-74
2024/01/02 03:44:51;;;;;;;16.83;1.30;;;;;;;5.83;100.00;99321.00;5208749;28;20025;-74
2024/01/02 03:47:21;;;;;;;13.00;1.52;;;;;;;5.88;100.00;99319.94;5210530;28;20044;-74
2024/01/02 03:49:52;;;;;;;14.68;1.90;;;;;;;5.90;100.00;99327.69;5209153;28;20478;-75
2024/01/02 03:52:22;;;;;;;14.88;1.55;;;;;;;6.04;100.00;99317.63;5214036;28;20072;-74
2024/01/02 03:54:52;;;;;;;12.40;1.60;;;;;;;6.01;100.00;99310.81;5208292;28;20017;-74
2024/01/02 03:57:23;;;;;;;10.43;1.30;;;;;;;6.01;100.00;99299.59;5211004;28;20036;-74
2024/01/02 03:59:53;;;;;;;16.92;1.63;;;;;;;5.99;100.00;99299.66;5209257;28;20132;-74
2024/01/02 04:02:23;;;;;;;11.13;1.50;;;;;;;5.99;100.00;99291.03;5207217;28;20102;-74
2024/01/02 04:04:54;;;;;;;8.18;1.27;;;;;;;5.98;100.00;99279.84;5212774;28;20385;-75
2024/01/02 04:07:24;;;;;;;6.57;1.30;;;;;;;6.04;100.00;99271.81;5208359;28;20041;-74
2024/01/02 04:09:54;;;;;;;6.65;0.95;;;;;;;6.08;100.00;99255.22;5210035;28;20025;-75
2024/01/02 04:12:24;;;;;;;7.10;1.02;;;;;;;6.13;100.00;99258.50;5211657;28;20043;-74
2024/01/02 04:14:55;;;;;;;7.47;0.93;;;;;;;6.12;100.00;99240.41;5209848;28;20475;-75
2024/01/02 04:17:25;;;;;;;9.77;1.27;;;;;;;6.08;100.00;99241.44;5212444;28;20037;-74
2024/01/02 04:19:55;;;;;;;6.57;1.30;;;;;;;6.19;100.00;99223.69;5212914;28;20041;-74
2024/01/02 04:22:26;;;;;;;6.30;0.82;;;;;;;6.14;100.00;99223.03;5208666;28;20047;-74
2024/01/02 04:24:56;;;;;;;5.20;0.75;;;;;;;6.15;100.00;99228.16;5208339;28;20032;-75
2024/01/02 04:27:26;;;;;;;10.13;0.98;;;;;;;6.12;100.00;99214.47;5211561;28;20295;-75
2024/01/02 04:29:56;;;;;;;6.78;1.33;;;;;;;6.06;100.00;99210.34;5221137;28;20112;-74
2024/01/02 04:32:27;;;;;;;4.55;0.90;;;;;;;6.14;100.00;99197.09;5207784;28;20033;-74
2024/01/02 04:34:57;;;;;;;3.28;0.70;;;;;;;6.09;100.00;99193.84;5214137;28;20028;-74
2024/01/02 04:37:27;;;;;;;10.02;1.42;;;;;;;6.13;100.00;99174.66;5213028;28;20112;-74
2024/01/02 04:39:57;;;;;;;7.20;1.20;;;;;;;6.12;100.00;99185.94;5209263;28;20032;-74
2024/01/02 04:42:28;;;;;;;5.63;1.10;;;;;;;6.06;100.00;99179.25;5217158;28;20032;-75
2024/01/02 04:44:58;;;;;;;5.90;1.00;;;;;;;6.15;100.00;99172.84;5208867;28;20025;-74
2024/01/02 04:47:29;;;;;;;7.03;1.30;;;;;;;6.17;100.00;99165.84;5209471;28;20432;-75
2024/01/02 04:50:00;;;;;;;8.75;1.25;;;;;;;6.11;100.00;99171.28;5212935;28;20076;-75
2024/01/02 04:52:30;;;;;;;5.40;0.90;;;;;;;6.14;100.00;99160.78;5206827;28;20137;-74
2024/01/02 04:55:00;;;;;;;8.15;1.40;;;;;;;6.15;100.00;99141.72;5206262;28;20112;-74
2024/01/02 04:57:31;;;;;;;6.00;1.20;;;;;;;6.07;100.00;99136.03;5212789;28;20033;-75
2024/01/02 05:00:01;;;;;;;12.38;1.40;;;;;;;6.11;100.00;99129.78;5213013;28;20029;-75
2024/01/02 05:02:32;;;;;;;11.82;1.58;;;;;;;6.09;100.00;99132.44;5208445;28;20025;-74
2024/01/02 05:05:03;;;;;;;5.95;0.93;;;;;;;6.02;100.00;99122.38;5210300;28;20466;-74
2024/01/02 05:07:34;;;;;;;8.25;1.20;;;;;;;6.01;100.00;99110.31;5202198;28;20078;-75
2024/01/02 05:10:04;;;;;;;8.45;1.20;;;;;;;6.04;100.00;99103.28;5212631;28;20529;-75
2024/01/02 05:12:35;;;;;;;10.38;1.15;;;;;;;6.08;100.00;99086.66;5208495;28;20494;-74
2024/01/02 05:15:05;;;;;;;7.15;1.13;;;;;;;6.02;100.00;99086.94;5206414;28;20021;-75
2024/01/02 05:17:36;;;;;;;9.82;1.30;;;;;;;5.99;100.00;99083.63;5211534;28;20044;-74
2024/01/02 05:20:07;;;;;;;8.95;1.20;;;;;;;6.00;100.00;99085.31;5210707;28;20401;-75
2024/01/02 05:22:37;;;;;;;5.93;0.93;;;;;;;6.05;100.00;99070.41;5213260;28;20116;-75
2024/01/02 05:25:08;;;;;;;7.70;1.15;;;;;;;6.04;100.00;99063.53;5211018;28;20029;-75
2024/01/02 05:27:38;;;;;;;9.18;1.00;;;;;;;6.03;100.00;99054.91;5206392;28;20112;-75
2024/01/02 05:30:09;;;;;;;7.53;1.38;;;;;;;6.05;100.00;99047.91;5204527;28;20041;-75
2024/01/02 05:32:39;;;;;;;7.80;1.00;;;;;;;6.12;100.00;99051.91;5205362;28;20083;-75
2024/01/02 05:35:10;;;;;;;5.03;0.90;;;;;;;6.08;100.00;99044.38;5205720;28;20284;-75
2024/01/02 05:37:40;;;;;;;5.63;0.98;;;;;;;6.05;100.00;99040.13;5206259;28;20075;-74
2024/01/02 05:40:11;;;;;;;5.60;1.02;;;;;;;6.09;100.00;99039.09;5207165;28;20029;-75
2024/01/02 05:42:41;;;;;;;6.32;0.90;;;;;;;6.13;100.00;99026.84;5204763;28;20053;-74
2024/01/02 05:45:11;;;;;;;5.95;0.90;;;;;;;6.08;100.00;99029.63;5209703;28;20030;-75
2024/01/02 05:47:42;;;;;;;5.03;1.10;;;;;;;6.06;100.00;99021.06;5208806;28;20124;-75
2024/01/02 05:50:12;;;;;;;3.10;0.85;;;;;;;6.12;100.00;99023.41;5209037;28;20037;-75
2024/01/02 05:52:42;;;;;;;7.15;1.05;;;;;;;6.10;100.00;99009.66;5207823;28;20446;-75
2024/01/02 05:55:13;;;;;;;4.03;0.90;;;;;;;6.03;100.00;99013.44;5214160;28;20036;-75
2024/01/02 05:57:43;;;;;;;4.15;1.02;;;;;;;6.04;100.00;99003.88;5213662;28;20160;-75
2024/01/02 06:00:14;;;;;;;5.43;1.02;;;;;;;6.08;100.00;98997.69;5205314;28;20028;-75
2024/01/02 06:02:44;;;;;;;6.93;1.00;;;;;;;6.06;100.00;98996.91;5199642;28;20032;-75
2024/01/02 06:05:16;;;;;;;6.07;0.80;;;;;;;6.08;100.00;98984.72;5206156;28;20036;-75
2024/01/02 06:07:47;;;;;;;9.30;0.98;;;;;;;6.02;100.00;98984.97;5223386;28;20186;-75
2024/01/02 06:10:17;;;;;;;7.68;1.38;;;;;;;6.12;100.00;98978.50;5205052;28;20111;-75
2024/01/02 06:12:47;;;;;;;3.08;0.60;;;;;;;6.14;100.00;98974.06;5204343;28;20036;-75
2024/01/02 06:15:17;;;;;;;2.38;0.60;;;;;;;6.12;100.00;98965.53;5203718;28;20028;-75
2024/01/02 06:17:48;;;;;;;6.63;0.95;;;;;;;6.12;100.00;98968.13;5202047;28;20120;-75
2024/01/02 06:20:19;;;;;;;4.90;0.98;;;;;;;6.06;100.00;98965.81;5207128;28;20029;-75
2024/01/02 06:22:49;;;;;;;7.13;1.45;;;;;;;6.09;100.00;98965.66;5210867;28;20060;-75
2024/01/02 06:25:19;;;;;;;6.85;0.90;;;;;;;6.09;100.00;98966.50;5205493;28;20534;-75
2024/01/02 06:27:50;;;;;;;11.35;1.00;;;;;;;6.02;100.00;98957.31;5206433;28;20028;-75
2024/01/02 06:30:22;;;;;;;3.42;0.82;;;;;;;6.07;100.00;98952.75;5210809;28;20509;-75
2024/01/02 06:32:52;;;;;;;2.72;0.82;;;;;;;6.07;100.00;98959.69;5206408;28;20091;-75
2024/01/02 06:35:22;;;;;;;6.40;1.08;;;;;;;6.04;100.00;98952.03;5203255;28;20120;-75
2024/01/02 06:37:53;;;;;;;5.28;1.10;;;;;;;6.07;100.00;98951.94;5205329;28;20036;-75
2024/01/02 06:40:23;;;;;;;5.00;0.90;;;;;;;6.09;100.00;98934.53;5207099;28;20044;-75
2024/01/02 06:42:53;;;;;;;4.00;0.77;;;;;;;6.03;100.00;98934.78;5208130;28;20039;-75
2024/01/02 06:45:23;;;;;;;7.28;0.98;;;;;;;5.98;100.00;98921.19;5210427;28;20372;-76
2024/01/02 06:47:55;;;;;;;3.83;1.00;;;;;;;6.02;100.00;98907.19;5212916;28;20056;-75
2024/01/02 06:50:26;;;;;;;7.35;1.00;;;;;;;6.03;100.00;98914.06;5215100;28;20664;-75
2024/01/02 06:52:56;;;;;;;7.55;1.02;;;;;;;6.07;100.00;98913.03;5208199;28;20021;-75
2024/01/02 06:55:27;;;;;;;6.13;1.17;;;;;;;6.06;100.00;98893.22;5207071;28;20022;-75
2024/01/02 06:57:57;;;;;;;7.13;1.10;;;;;;;5.99;100.00;98887.44;5209578;28;20144;-75
2024/01/02 07:00:28;;;;;;;3.42;0.82;;;;;;;6.04;100.00;98879.44;5212664;28;20420;-75
2024/01/02 07:02:59;;;;;;;8.23;1.15;;;;;;;6.05;100.00;98870.78;5208706;28;20229;-75
2024/01/02 07:05:30;;;;;;;3.63;0.80;;;;;;;5.96;100.00;98858.22;5213147;28;20039;-75
2024/01/02 07:08:00;;;;;;;6.43;0.90;;;;;;;6.01;100.00;98858.84;5207727;28;20029;-75
2024/01/02 07:10:30;;;;;;;5.05;0.80;;;;;;;6.01;100.00;98845.88;5206530;28;20036;-75
2024/01/02 07:13:00;;;;;;;3.60;0.88;;;;;;;6.02;100.00;98845.81;5206158;28;20060;-75
2024/01/02 07:15:31;;;;;;;3.67;0.90;;;;;;;6.03;100.00;98849.25;5212057;28;20017;-75
2024/01/02 07:18:01;;;;;;;5.28;1.10;;;;;;;6.08;100.00;98850.72;5210600;28;20033;-75
2024/01/02 07:20:31;;;;;;;5.30;1.00;;;;;;;6.03;100.00;98831.94;5210156;28;20111;-74
2024/01/02 07:23:02;;;;;;;2.10;0.60;;;;;;;6.06;100.00;98833.56;5210837;28;20208;-75
2024/01/02 07:25:32;;;;;;;5.20;0.80;;;;;;;6.06;100.00;98831.81;5213038;28;20030;-75
2024/01/02 07:28:03;;;;;;;3.42;0.70;;;;;;;6.05;100.00;98837.06;5209674;28;20075;-72
2024/01/02 07:30:34;;;;;;;3.35;0.75;;;;;;;6.05;100.00;98832.72;5209816;28;20025;-74
2024/01/02 07:33:04;;;;;;;2.97;0.70;;;;;;;6.00;100.00;98833.81;5202858;28;20048;-74
2024/01/02 07:35:34;;;;;;;2.33;0.70;;;;;;;6.01;100.00;98832.91;5208189;28;20121;-74
2024/01/02 07:38:04;;;;;;;3.47;0.82;;;;;;;6.07;100.00;98830.06;5202919;28;20040;-72
2024/01/02 07:40:35;;;;;;;3.53;0.80;;;;;;;6.04;100.00;98814.63;5208850;28;20258;-74
2024/01/02 07:43:05;;;;;;;1.67;0.60;;;;;;;6.11;100.00;98829.00;5199782;28;20017;-75
2024/01/02 07:45:35;;;;;;;5.45;0.90;;;;;;;6.03;100.00;98824.16;5209974;28;20089;-73
2024/01/02 07:48:06;;;;;;;7.03;0.60;;;;;;;6.05;100.00;98819.75;5204136;28;20021;-74
2024/01/02 07:50:36;;;;;;;4.05;0.50;;;;;;;6.04;100.00;98817.22;5208684;28;20071;-73
2024/01/02 07:53:06;;;;;;;1.38;0.70;;;;;;;6.04;100.00;98818.06;5205418;28;20264;-74
2024/01/02 07:55:37;;;;;;;2.72;0.57;;;;;;;6.05;100.00;98818.94;5208216;28;20047;-75
2024/01/02 07:58:07;;;;;;;2.95;0.60;;;;;;;6.11;100.00;98813.44;5208962;28;20066;-73
2024/01/02 08:00:37;;;;;;;3.83;0.75;;;;;;;6.04;100.00;98817.22;5208823;28;20025;-72
2024/01/02 08:03:09;;;;;;;5.78;1.02;;;;;;;6.01;100.00;98807.00;5204931;28;20025;-72
2024/01/02 08:05:40;;;;;;;1.90;0.60;;;;;;;5.97;100.00;98806.31;5205879;28;20027;-75
2024/01/02 08:08:11;;;;;;;3.08;0.70;;;;;;;6.01;100.00;98804.41;5205753;28;20111;-75
2024/01/02 08:10:41;;;;;;;2.55;0.65;;;;;;;6.00;100.00;98794.94;5206151;28;20191;-74
2024/01/02 08:13:11;;;;;;;2.78;0.82;;;;;;;5.99;100.00;98806.22;5202887;28;20037;-74
2024/01/02 08:15:42;;;;;;;2.47;0.65;;;;;;;5.91;100.00;98816.13;5206044;28;20044;-74
2024/01/02 08:18:12;;;;;;;1.27;0.52;;;;;;;5.86;100.00;98805.94;5205874;28;20093;-75
2024/01/02 08:20:42;;;;;;;1.83;0.45;;;;;;;5.86;100.00;98792.97;5210314;28;20032;-74
2024/01/02 08:23:13;;;;;;;2.55;0.55;;;;;;;5.85;100.00;98769.72;5207770;28;20428;-75
2024/01/02 08:25:43;;;;;;;0.93;0.30;;;;;;;5.81;100.00;98769.03;5205342;28;20021;-74
2024/01/02 08:28:13;;;;;;;2.35;0.32;;;;;;;5.75;100.00;98750.28;5206010;28;20034;-74
2024/01/02 08:30:44;;;;;;;0.68;0.30;;;;;;;5.73;100.00;98741.75;5211539;28;20029;-75
2024/01/02 08:33:14;;;;;;;3.70;0.47;;;;;;;5.78;100.00;98740.66;5204510;28;20064;-75
2024/01/02 08:35:45;;;;;;;2.78;0.40;;;;;;;5.73;100.00;98733.97;5211808;28;20430;-75
2024/01/02 08:38:15;;;;;;;2.83;0.55;;;;;;;5.75;100.00;98732.16;5207534;28;20181;-74
2024/01/02 08:40:45;;;;;;;1.30;0.50;;;;;;;5.74;100.00;98727.88;5207183;28;20078;-74
2024/01/02 08:43:17;;;;;;;0.30;0.25;;;;;;;5.74;100.00;98722.72;5211033;28;20423;-75
2024/01/02 08:45:47;;;;;;;1.92;0.40;;;;;;;5.71;100.00;98722.84;5204720;28;20017;-74
2024/01/02 08:48:18;;;;;;;2.47;0.50;;;;;;;5.67;100.00;98714.38;5207339;28;20033;-75
2024/01/02 08:50:48;;;;;;;2.28;0.40;;;;;;;5.57;100.00;98699.31;5208245;28;20063;-75
2024/01/02 08:53:18;;;;;;;2.67;0.28;;;;;;;5.54;100.00;98695.09;5207947;28;20100;-75
2024/01/02 08:55:49;;;;;;;3.42;0.30;;;;;;;5.56;100.00;98679.50;5207779;28;20411;-75
2024/01/02 08:58:19;;;;;;;0.35;0.10;;;;;;;5.54;100.00;98683.91;5209053;28;20057;-75
2024/01/02 09:00:50;;;;;;;0.47;0.10;;;;;;;5.51;100.00;98663.31;5209158;28;20127;-75
2024/01/02 09:03:20;;;;;;;0.50;0.20;;;;;;;5.54;100.00;98655.44;5206258;28;20030;-75
2024/01/02 09:05:51;;;;;;;3.03;0.30;;;;;;;5.55;100.00;98652.75;5209601;28;20099;-75
2024/01/02 09:08:21;;;;;;;0.63;0.20;;;;;;;5.64;100.00;98648.88;5205420;28;20696;-74
2024/01/02 09:10:51;;;;;;;0.90;0.15;;;;;;;5.67;100.00;98656.50;5206409;28;20040;-75
2024/01/02 09:13:21;;;;;;;0.30;0.10;;;;;;;5.62;100.00;98648.97;5207608;28;20025;-75
2024/01/02 09:15:52;;;;;;;0.30;0.10;;;;;;;5.69;100.00;98642.59;5199916;28;20390;-75
2024/01/02 09:18:22;;;;;;;0.80;0.30;;;;;;;5.64;100.00;98641.13;5203208;28;20120;-75
2024/01/02 09:20:52;;;;;;;0.50;0.20;;;;;;;5.62;100.00;98619.63;5205770;28;20478;-75
2024/01/02 09:23:23;;;;;;;0.45;0.15;;;;;;;5.61;100.00;98636.09;5207362;28;20039;-74
2024/01/02 09:26:00;;;;;;;1.13;0.13;;;;;;;5.64;100.00;98646.31;5205557;28;20033;-75
2024/01/02 09:28:34;;;;;;;1.30;0.30;;;;;;;5.71;100.00;98642.53;5205335;28;20036;-75
2024/01/02 09:31:04;;;;;;;0.38;0.22;;;;;;;5.68;100.00;98627.97;5226941;28;20053;-72
2024/01/02 09:33:35;;;;;;;1.05;0.30;;;;;;;5.54;100.00;98614.81;5206655;28;20052;-74
2024/01/02 09:36:08;;;;;;;1.85;0.10;;;;;;;5.60;100.00;98618.88;5203533;28;20049;-73
2024/01/02 09:38:39;;;;;;;0.20;0.10;;;;;;;5.56;100.00;98609.56;5206440;28;20033;-74
2024/01/02 09:41:12;;;;;;;0.40;0.10;;;;;;;5.56;100.00;98612.97;5209714;28;20048;-74
2024/01/02 09:43:55;;;;;;;0.40;0.20;;;;;;;5.59;100.00;98606.81;5210282;28;20486;-75
2024/01/02 09:46:56;;;;;;;0.00;0.00;;;;;;;5.53;100.00;98607.94;5204480;28;20037;-75
2024/01/02 09:49:31;;;;;;;0.20;0.10;;;;;;;5.62;100.00;98609.25;5210425;28;20079;-75
2024/01/02 09:52:42;;;;;;;0.10;0.10;;;;;;;5.61;100.00;98598.03;5210176;28;20068;-74
2024/01/02 09:55:34;;;;;;;0.35;0.10;;;;;;;5.63;100.00;98590.22;5207538;28;20570;-75
2024/01/02 09:58:27;;;;;;;0.52;0.10;;;;;;;5.54;100.00;98593.25;5206128;28;20029;-74
2024/01/02 10:01:20;;;;;;;0.17;0.10;;;;;;;5.62;100.00;98585.94;5203858;28;20277;-74
2024/01/02 10:04:13;;;;;;;0.20;0.10;;;;;;;5.59;100.00;98588.69;5202737;28;20043;-74
2024/01/02 10:06:52;;;;;;;0.20;0.10;;;;;;;5.67;100.00;98587.41;5201849;28;20045;-74
2024/01/02 10:10:03;;;;;;;1.92;0.20;;;;;;;5.55;100.00;98589.75;5206534;28;20120;-75
2024/01/02 10:12:36;;;;;;;0.20;0.10;;;;;;;5.62;100.00;98585.94;5205745;28;20289;-75
2024/01/02 10:15:36;;;;;;;2.72;0.10;;;;;;;5.63;100.00;98577.25;5200539;28;20021;-74
2024/01/02 10:18:44;;;;;;;0.10;0.10;;;;;;;5.70;100.00;98573.44;5205778;28;20033;-74
2024/01/02 10:21:18;;;;;;;0.20;0.20;;;;;;;5.72;100.00;98564.72;5211037;28;20018;-75
2024/01/02 10:24:03;;;;;;;0.20;0.10;;;;;;;5.73;100.00;98576.75;5222316;28;20040;-75
2024/01/02 10:26:38;;;;;;;0.32;0.20;;;;;;;5.81;100.00;98555.69;5212620;28;20149;-75
2024/01/02 10:29:18;;;;;;;2.30;0.10;;;;;;;5.69;100.00;98548.47;5210283;28;20503;-74
2024/01/02 10:32:04;;;;;;;0.80;0.13;;;;;;;5.75;100.00;98548.19;5210664;28;20076;-74
2024/01/02 10:34:42;;;;;;;0.40;0.10;;;;;;;5.83;100.00;98546.94;5212506;28;20028;-75
2024/01/02 10:37:14;;;;;;;1.23;0.20;;;;;;;5.77;100.00;98539.41;5210835;28;20037;-75
2024/01/02 10:39:47;;;;;;;0.22;0.10;;;;;;;5.86;100.00;98538.16;5211696;28;20424;-74
2024/01/02 10:42:42;;;;;;;0.20;0.10;;;;;;;5.93;100.00;98532.59;5209547;28;20026;-75
2024/01/02 10:45:24;;;;;;;0.30;0.20;;;;;;;5.90;100.00;98529.31;5209052;28;20017;-76
2024/01/02 10:48:26;;;;;;;0.10;0.10;;;;;;;5.93;100.00;98521.41;5205590;28;20441;-75
2024/01/02 10:51:05;;;;;;;0.20;0.10;;;;;;;5.92;100.00;98506.75;5212132;28;20028;-75
2024/01/02 10:54:04;;;;;;;0.17;0.10;;;;;;;5.99;100.00;98514.16;5208373;28;20032;-74
2024/01/02 10:56:49;;;;;;;0.45;0.20;;;;;;;5.99;100.00;98503.78;5210773;28;20029;-74
2024/01/02 10:59:32;;;;;;;0.20;0.10;;;;;;;6.09;100.00;98519.72;5214136;28;20368;-74
2024/01/02 11:02:30;;;;;;;0.82;0.20;;;;;;;6.03;100.00;98507.03;5204840;28;20029;-74
2024/01/02 11:05:11;;;;;;;0.40;0.28;;;;;;;5.97;100.00;98510.81;5207193;28;20506;-75
2024/01/02 11:07:53;;;;;;;0.40;0.20;;;;;;;6.07;100.00;98508.59;5210840;28;20043;-74
2024/01/02 11:10:29;;;;;;;0.52;0.10;;;;;;;6.06;100.00;98499.13;5211286;28;20044;-74
2024/01/02 11:13:06;;;;;;;0.63;0.20;;;;;;;6.17;100.00;98505.44;5213018;28;20036;-74
2024/01/02 11:15:38;;;;;;;0.63;0.20;;;;;;;6.16;100.00;98496.00;5207382;28;20572;-74
2024/01/02 11:18:10;;;;;;;1.35;0.20;;;;;;;6.17;100.00;98489.03;5211535;28;20234;-74
2024/01/02 11:21:25;;;;;;;1.30;0.17;;;;;;;6.27;100.00;98501.44;5209053;28;20548;-74
2024/01/02 11:24:00;;;;;;;0.10;0.10;;;;;;;6.29;100.00;98498.78;5157821;28;20040;-74
2024/01/02 11:26:33;;;;;;;0.43;0.10;;;;;;;6.27;100.00;98498.84;5156211;28;20455;-75
2024/01/02 11:29:04;;;;;;;0.25;0.15;;;;;;;6.26;100.00;98496.34;5185599;28;20041;-72
2024/01/02 11:31:35;;;;;;;0.90;0.20;;;;;;;6.35;100.00;98499.31;5210794;28;20592;-74
2024/01/02 11:34:30;;;;;;;1.95;0.20;;;;;;;6.31;100.00;98496.94;5208760;28;20350;-74
2024/01/02 11:37:12;;;;;;;0.60;0.28;;;;;;;6.34;100.00;98481.22;5209367;28;20541;-74
2024/01/02 11:40:24;;;;;;;0.32;0.20;;;;;;;6.40;100.00;98484.34;5208618;28;20120;-74
2024/01/02 11:43:17;;;;;;;0.35;0.15;;;;;;;6.42;100.00;98497.25;5210007;28;20031;-74
2024/01/02 11:45:56;;;;;;;0.20;0.10;;;;;;;6.55;100.00;98488.72;5219528;28;20035;-74
2024/01/02 11:48:47;;;;;;;0.25;0.20;;;;;;;6.47;100.00;98482.25;5204707;28;20544;-74
2024/01/02 11:51:21;;;;;;;1.75;0.57;;;;;;;6.56;100.00;98487.00;5208326;28;20038;-75
2024/01/02 11:54:16;;;;;;;0.17;0.10;;;;;;;6.62;100.00;98481.47;5208503;28;20410;-74
2024/01/02 11:56:47;;;;;;;0.20;0.10;;;;;;;6.74;100.00;98470.44;5205411;28;20033;-74
2024/01/02 11:59:22;;;;;;;0.20;0.10;;;;;;;6.81;100.00;98451.00;5208257;28;20122;-74